createdAt,value
2023-05-10T00:00:25.015Z,14.80
2023-05-10T00:02:51.768Z,12.87
2023-05-10T00:05:18.560Z,11.77
2023-05-10T00:07:45.976Z,11.80
2023-05-10T00:10:12.760Z,12.13
2023-05-10T00:12:39.510Z,12.80
2023-05-10T00:15:06.425Z,11.80
2023-05-10T00:17:32.997Z,12.37
2023-05-10T00:19:59.610Z,13.87
2023-05-10T00:22:26.322Z,13.33
2023-05-10T00:24:52.906Z,12.87
2023-05-10T00:27:19.437Z,13.17
2023-05-10T00:29:45.901Z,15.43
2023-05-10T00:32:12.830Z,14.03
2023-05-10T00:34:39.475Z,15.53
2023-05-10T00:37:05.984Z,13.87
2023-05-10T00:39:32.499Z,17.00
2023-05-10T00:41:59.039Z,15.03
2023-05-10T00:44:25.564Z,17.03
2023-05-10T00:46:52.109Z,16.10
2023-05-10T00:49:18.789Z,16.50
2023-05-10T00:51:45.885Z,13.73
2023-05-10T00:54:14.957Z,16.30
2023-05-10T00:56:41.653Z,15.33
2023-05-10T00:59:11.417Z,15.50
2023-05-10T01:01:38.635Z,15.87
2023-05-10T01:04:05.490Z,16.47
2023-05-10T01:06:32.140Z,16.83
2023-05-10T01:08:58.807Z,17.50
2023-05-10T01:11:25.374Z,17.63
2023-05-10T01:13:56.063Z,18.53
2023-05-10T01:16:22.872Z,15.53
2023-05-10T01:18:49.657Z,19.17
2023-05-10T01:21:19.778Z,16.13
2023-05-10T01:24:05.053Z,18.13
2023-05-10T01:26:31.684Z,18.43
2023-05-10T01:29:04.258Z,18.03
2023-05-10T01:31:50.051Z,17.17
2023-05-10T01:34:26.459Z,16.97
2023-05-10T01:36:59.403Z,18.07
2023-05-10T01:39:30.385Z,19.73
2023-05-10T01:42:00.675Z,19.77
2023-05-10T01:44:45.566Z,19.93
2023-05-10T01:47:13.494Z,17.67
2023-05-10T01:49:47.393Z,20.50
2023-05-10T01:52:15.452Z,18.60
2023-05-10T01:54:44.083Z,19.27
2023-05-10T01:57:13.224Z,20.07
2023-05-10T01:59:41.900Z,17.80
2023-05-10T02:02:12.729Z,20.60
2023-05-10T02:04:40.675Z,21.43
2023-05-10T02:07:07.798Z,19.80
2023-05-10T02:09:35.796Z,17.43
2023-05-10T02:12:03.569Z,21.00
2023-05-10T02:14:31.743Z,19.47
2023-05-10T02:16:59.548Z,20.00
2023-05-10T02:19:27.118Z,19.63
2023-05-10T02:21:54.061Z,19.93
2023-05-10T02:24:21.063Z,18.93
2023-05-10T02:26:48.487Z,17.87
2023-05-10T02:29:15.648Z,19.63
2023-05-10T02:31:44.567Z,20.47
2023-05-10T02:34:11.567Z,20.33
2023-05-10T02:36:39.242Z,19.33
2023-05-10T02:39:13.158Z,20.87
2023-05-10T02:41:41.292Z,19.03
2023-05-10T02:44:09.038Z,20.07
2023-05-10T02:46:35.926Z,20.23
2023-05-10T02:49:02.647Z,20.33
2023-05-10T02:51:32.839Z,15.53
2023-05-10T02:54:02.602Z,16.60
2023-05-10T02:56:36.957Z,17.10
2023-05-10T02:59:03.501Z,17.97
2023-05-10T03:01:30.498Z,18.00
2023-05-10T03:03:57.198Z,19.60
2023-05-10T03:06:23.765Z,18.50
2023-05-10T03:08:50.375Z,18.60
2023-05-10T03:11:23.168Z,17.77
2023-05-10T03:13:58.249Z,17.90
2023-05-10T03:16:30.512Z,16.60
2023-05-10T03:19:08.450Z,17.47
2023-05-10T03:21:38.013Z,20.20
2023-05-10T03:24:07.388Z,18.30
2023-05-10T03:26:34.265Z,21.77
2023-05-10T03:29:01.673Z,18.90
2023-05-10T03:31:28.392Z,18.37
2023-05-10T03:33:54.907Z,20.67
2023-05-10T03:36:21.752Z,21.67
2023-05-10T03:38:48.542Z,21.70
2023-05-10T03:41:15.278Z,20.57
2023-05-10T03:43:42.623Z,20.40
2023-05-10T03:46:09.211Z,21.90
2023-05-10T03:48:35.983Z,20.33
2023-05-10T03:51:03.680Z,18.00
2023-05-10T03:53:31.240Z,15.90
2023-05-10T03:55:58.097Z,13.63
2023-05-10T03:58:25.160Z,12.13
2023-05-10T04:00:52.211Z,12.60
2023-05-10T04:03:19.387Z,11.50
2023-05-10T04:05:46.916Z,9.50
2023-05-10T04:08:13.596Z,10.73
2023-05-10T04:10:40.858Z,10.83
2023-05-10T04:13:07.696Z,10.53
2023-05-10T04:15:54.216Z,14.00
2023-05-10T04:18:41.144Z,11.60
2023-05-10T04:21:27.737Z,13.00
2023-05-10T04:23:56.584Z,13.27
2023-05-10T04:26:34.592Z,11.70
2023-05-10T04:29:21.440Z,10.80
2023-05-10T04:31:59.179Z,13.30
2023-05-10T04:34:45.689Z,11.90
2023-05-10T04:37:32.247Z,10.17
2023-05-10T04:40:18.887Z,11.63
2023-05-10T04:43:01.106Z,10.23
2023-05-10T04:45:29.329Z,10.03
2023-05-10T04:47:56.509Z,10.30
2023-05-10T04:50:23.334Z,10.67
2023-05-10T04:52:50.194Z,12.17
2023-05-10T04:55:17.197Z,11.70
2023-05-10T04:57:43.795Z,12.03
2023-05-10T05:00:10.805Z,12.73
2023-05-10T05:02:37.529Z,11.40
2023-05-10T05:05:04.318Z,11.50
2023-05-10T05:07:31.702Z,11.10
2023-05-10T05:09:58.314Z,12.73
2023-05-10T05:12:24.890Z,12.80
2023-05-10T05:14:51.484Z,10.30
2023-05-10T05:17:18.076Z,12.37
2023-05-10T05:19:44.575Z,13.00
2023-05-10T05:22:11.213Z,13.37
2023-05-10T05:24:40.692Z,14.07
2023-05-10T05:27:07.305Z,11.00
2023-05-10T05:29:33.844Z,11.07
2023-05-10T05:32:00.801Z,11.20
2023-05-10T05:34:28.121Z,8.33
2023-05-10T05:36:55.093Z,6.47
2023-05-10T05:39:21.756Z,6.63
2023-05-10T05:41:48.370Z,5.90
2023-05-10T05:44:14.965Z,6.43
2023-05-10T05:46:41.490Z,5.97
2023-05-10T05:49:08.171Z,5.70
2023-05-10T05:51:35.935Z,4.47
2023-05-10T05:54:02.782Z,5.27
2023-05-10T05:56:29.601Z,4.50
2023-05-10T05:58:56.243Z,6.77
2023-05-10T06:01:22.776Z,4.33
2023-05-10T06:03:50.896Z,4.37
2023-05-10T06:06:19.114Z,3.50
2023-05-10T06:08:46.452Z,3.10
2023-05-10T06:11:14.058Z,3.97
2023-05-10T06:13:41.521Z,3.70
2023-05-10T06:16:08.317Z,3.60
2023-05-10T06:18:35.758Z,3.83
2023-05-10T06:21:02.506Z,3.37
2023-05-10T06:23:32.506Z,4.40
2023-05-10T06:25:59.276Z,4.33
2023-05-10T06:28:27.086Z,3.73
2023-05-10T06:30:53.782Z,5.87
2023-05-10T06:33:20.492Z,3.90
2023-05-10T06:35:47.244Z,4.43
2023-05-10T06:38:13.878Z,6.63
2023-05-10T06:40:43.392Z,7.07
2023-05-10T06:43:10.271Z,5.53
2023-05-10T06:45:36.871Z,5.77
2023-05-10T06:48:03.811Z,6.53
2023-05-10T06:50:30.361Z,4.90
2023-05-10T06:52:57.227Z,6.93
2023-05-10T06:55:23.796Z,6.33
2023-05-10T06:57:51.585Z,8.03
2023-05-10T07:00:20.533Z,5.13
2023-05-10T07:02:48.597Z,9.17
2023-05-10T07:05:16.423Z,5.80
2023-05-10T07:07:45.045Z,5.20
2023-05-10T07:10:11.705Z,5.80
2023-05-10T07:12:39.370Z,6.30
2023-05-10T07:15:06.369Z,5.10
2023-05-10T07:17:34.415Z,5.90
2023-05-10T07:20:01.364Z,4.93
2023-05-10T07:22:28.010Z,5.30
2023-05-10T07:24:54.643Z,7.90
2023-05-10T07:27:22.172Z,6.77
2023-05-10T07:29:49.643Z,7.37
2023-05-10T07:32:16.253Z,6.67
2023-05-10T07:34:42.853Z,5.57
2023-05-10T07:37:09.563Z,6.10
2023-05-10T07:39:36.290Z,6.00
2023-05-10T07:42:03.893Z,5.67
2023-05-10T07:44:30.589Z,6.37
2023-05-10T07:46:57.140Z,6.37
2023-05-10T07:49:25.285Z,6.27
2023-05-10T07:51:52.083Z,6.33
2023-05-10T07:54:20.277Z,6.20
2023-05-10T07:56:48.462Z,6.97
2023-05-10T07:59:19.225Z,5.63
2023-05-10T08:01:46.090Z,5.70
2023-05-10T08:04:13.177Z,6.97
2023-05-10T08:06:40.693Z,6.47
2023-05-10T08:09:09.099Z,5.83
2023-05-10T08:11:36.563Z,8.80
2023-05-10T08:14:03.662Z,5.87
2023-05-10T08:16:31.606Z,5.97
2023-05-10T08:18:58.822Z,6.17
2023-05-10T08:21:25.955Z,5.87
2023-05-10T08:23:53.793Z,6.33
2023-05-10T08:26:22.899Z,5.90
2023-05-10T08:28:50.034Z,8.17
2023-05-10T08:31:17.187Z,6.33
2023-05-10T08:33:44.580Z,6.83
2023-05-10T08:36:11.658Z,5.23
2023-05-10T08:38:38.745Z,7.50
2023-05-10T08:41:06.454Z,5.23
2023-05-10T08:43:33.163Z,6.53
2023-05-10T08:46:02.320Z,6.13
2023-05-10T08:48:29.992Z,5.97
2023-05-10T08:50:59.047Z,6.57
2023-05-10T08:53:27.711Z,6.90
2023-05-10T08:55:54.436Z,5.17
2023-05-10T08:58:21.437Z,7.00
2023-05-10T09:00:48.267Z,6.53
2023-05-10T09:03:15.109Z,5.83
2023-05-10T09:05:42.887Z,5.43
2023-05-10T09:08:09.969Z,5.73
2023-05-10T09:10:36.942Z,7.80
2023-05-10T09:13:03.901Z,5.73
2023-05-10T09:15:30.493Z,9.37
2023-05-10T09:17:58.057Z,9.93
2023-05-10T09:20:25.089Z,7.20
2023-05-10T09:22:52.375Z,8.93
2023-05-10T09:25:19.401Z,12.17
2023-05-10T09:27:47.252Z,7.60
2023-05-10T09:30:17.852Z,7.93
2023-05-10T09:32:45.563Z,8.80
2023-05-10T09:35:13.131Z,11.03
2023-05-10T09:37:42.378Z,8.43
2023-05-10T09:40:12.105Z,9.90
2023-05-10T09:42:39.134Z,11.57
2023-05-10T09:45:06.035Z,7.60
2023-05-10T09:47:33.022Z,7.80
2023-05-10T09:50:04.321Z,9.90
2023-05-10T09:52:51.980Z,11.07
2023-05-10T09:55:22.840Z,11.40
2023-05-10T09:57:50.316Z,9.63
2023-05-10T10:00:20.578Z,7.57
2023-05-10T10:02:48.604Z,8.10
2023-05-10T10:05:16.144Z,7.87
2023-05-10T10:07:43.036Z,7.87
2023-05-10T10:10:13.230Z,9.30
2023-05-10T10:12:40.786Z,9.57
2023-05-10T10:15:08.370Z,9.03
2023-05-10T10:17:36.611Z,10.93
2023-05-10T10:20:04.125Z,7.70
2023-05-10T10:22:30.699Z,7.07
2023-05-10T10:24:57.642Z,10.27
2023-05-10T10:27:24.163Z,8.40
2023-05-10T10:30:00.542Z,11.73
2023-05-10T10:32:31.145Z,8.60
2023-05-10T10:34:58.090Z,13.30
2023-05-10T10:37:25.152Z,10.87
2023-05-10T10:39:51.797Z,11.03
2023-05-10T10:42:38.383Z,8.60
2023-05-10T10:45:14.981Z,8.73
2023-05-10T10:47:44.258Z,11.30
2023-05-10T10:50:13.773Z,10.50
2023-05-10T10:52:40.952Z,9.50
2023-05-10T10:55:18.152Z,10.70
2023-05-10T10:57:52.964Z,11.10
2023-05-10T11:00:22.838Z,9.67
2023-05-10T11:02:50.443Z,8.30
2023-05-10T11:05:36.538Z,10.07
2023-05-10T11:08:13.655Z,11.87
2023-05-10T11:10:41.359Z,8.93
2023-05-10T11:13:09.169Z,8.87
2023-05-10T11:15:39.708Z,8.97
2023-05-10T11:18:22.320Z,11.83
2023-05-10T11:20:56.523Z,9.27
2023-05-10T11:23:23.071Z,11.30
2023-05-10T11:25:50.108Z,8.30
2023-05-10T11:28:18.111Z,9.07
2023-05-10T11:30:45.089Z,7.93
2023-05-10T11:33:16.356Z,8.63
2023-05-10T11:35:43.679Z,9.07
2023-05-10T11:38:14.010Z,9.73
2023-05-10T11:40:42.803Z,10.33
2023-05-10T11:43:10.914Z,8.33
2023-05-10T11:45:37.714Z,9.20
2023-05-10T11:48:04.923Z,8.73
2023-05-10T11:50:31.653Z,7.80
2023-05-10T11:52:58.452Z,10.33
2023-05-10T11:55:27.872Z,8.83
2023-05-10T11:57:55.517Z,10.70
2023-05-10T12:00:22.349Z,11.23
2023-05-10T12:02:49.460Z,10.47
2023-05-10T12:05:16.465Z,12.27
2023-05-10T12:07:43.170Z,9.93
2023-05-10T12:10:11.059Z,8.00
2023-05-10T12:12:42.968Z,8.80
2023-05-10T12:15:30.111Z,7.83
2023-05-10T12:17:57.863Z,8.50
2023-05-10T12:20:25.245Z,8.00
2023-05-10T12:22:51.855Z,8.30
2023-05-10T12:25:19.243Z,6.60
2023-05-10T12:27:52.859Z,9.10
2023-05-10T12:30:23.327Z,8.57
2023-05-10T12:32:50.105Z,9.70
2023-05-10T12:35:17.013Z,10.10
2023-05-10T12:37:44.097Z,11.27
2023-05-10T12:40:12.132Z,9.40
2023-05-10T12:42:39.440Z,15.03
2023-05-10T12:45:06.636Z,10.60
2023-05-10T12:47:33.971Z,10.60
2023-05-10T12:50:01.229Z,9.37
2023-05-10T12:52:28.340Z,10.67
2023-05-10T12:54:54.903Z,9.83
2023-05-10T12:57:21.709Z,10.90
2023-05-10T12:59:48.263Z,10.43
2023-05-10T13:02:15.821Z,7.43
2023-05-10T13:04:42.918Z,9.67
2023-05-10T13:07:09.681Z,6.93
2023-05-10T13:09:36.270Z,9.53
2023-05-10T13:12:02.941Z,9.47
2023-05-10T13:14:30.646Z,11.17
2023-05-10T13:16:57.241Z,13.53
2023-05-10T13:19:23.767Z,17.17
2023-05-10T13:21:50.482Z,17.77
2023-05-10T13:24:17.979Z,18.10
2023-05-10T13:26:44.580Z,19.47
2023-05-10T13:29:11.810Z,17.00
2023-05-10T13:31:38.607Z,17.43
2023-05-10T13:34:05.921Z,18.83
2023-05-10T13:36:32.584Z,21.23
2023-05-10T13:38:59.263Z,17.77
2023-05-10T13:41:26.193Z,18.80
2023-05-10T13:43:52.932Z,18.77
2023-05-10T13:46:19.829Z,20.93
2023-05-10T13:48:46.440Z,18.40
2023-05-10T13:51:13.886Z,18.33
2023-05-10T13:53:40.516Z,17.53
2023-05-10T13:56:07.559Z,18.57
2023-05-10T13:58:34.078Z,16.57
2023-05-10T14:01:00.704Z,18.53
2023-05-10T14:03:27.433Z,19.37
2023-05-10T14:05:53.970Z,16.60
2023-05-10T14:08:21.236Z,13.43
2023-05-10T14:10:47.975Z,12.97
2023-05-10T14:13:14.791Z,10.40
2023-05-10T14:15:41.338Z,11.17
2023-05-10T14:18:07.930Z,9.37
2023-05-10T14:20:34.906Z,9.03
2023-05-10T14:23:01.487Z,11.50
2023-05-10T14:25:29.177Z,10.80
2023-05-10T14:27:55.783Z,9.87
2023-05-10T14:30:22.389Z,13.53
2023-05-10T14:32:49.058Z,6.80
2023-05-10T14:35:18.455Z,8.00
2023-05-10T14:37:46.129Z,7.33
2023-05-10T14:40:13.402Z,5.63
2023-05-10T14:42:40.227Z,7.93
2023-05-10T14:45:07.006Z,5.63
2023-05-10T14:47:33.663Z,6.50
2023-05-10T14:50:01.340Z,11.10
2023-05-10T14:52:27.906Z,6.90
2023-05-10T14:54:54.715Z,8.73
2023-05-10T14:57:21.339Z,7.30
2023-05-10T14:59:48.406Z,6.37
2023-05-10T15:02:15.686Z,6.27
2023-05-10T15:04:42.589Z,6.87
2023-05-10T15:07:09.551Z,7.40
2023-05-10T15:09:36.540Z,5.27
2023-05-10T15:12:03.136Z,7.97
2023-05-10T15:14:29.921Z,5.70
2023-05-10T15:16:56.517Z,5.23
2023-05-10T15:19:23.280Z,7.20
2023-05-10T15:21:49.840Z,5.20
2023-05-10T15:24:16.655Z,7.20
2023-05-10T15:26:43.822Z,15.50
2023-05-10T15:29:10.615Z,5.07
2023-05-10T15:31:37.434Z,4.30
2023-05-10T15:34:04.076Z,6.97
2023-05-10T15:36:32.797Z,4.53
2023-05-10T15:38:59.434Z,4.27
2023-05-10T15:41:26.319Z,6.10
2023-05-10T15:43:54.657Z,5.63
2023-05-10T15:46:21.206Z,4.73
2023-05-10T15:48:47.783Z,4.30
2023-05-10T15:51:14.916Z,6.40
2023-05-10T15:53:52.669Z,6.30
2023-05-10T15:56:23.460Z,4.53
2023-05-10T15:58:50.050Z,18.57
2023-05-10T16:01:16.728Z,5.00
2023-05-10T16:03:43.990Z,4.33
2023-05-10T16:06:10.565Z,3.80
2023-05-10T16:08:37.114Z,3.03
2023-05-10T16:11:03.655Z,2.40
2023-05-10T16:13:30.447Z,3.33
2023-05-10T16:15:58.294Z,2.90
2023-05-10T16:18:24.991Z,2.23
2023-05-10T16:20:51.833Z,2.67
2023-05-10T16:23:18.406Z,9.07
2023-05-10T16:25:45.111Z,3.37
2023-05-10T16:28:11.888Z,3.10
2023-05-10T16:30:38.528Z,3.27
2023-05-10T16:33:05.293Z,2.27
2023-05-10T16:35:32.074Z,1.30
2023-05-10T16:37:58.618Z,2.93
2023-05-10T16:40:25.197Z,1.27
2023-05-10T16:42:51.748Z,1.20
2023-05-10T16:45:18.691Z,1.23
2023-05-10T16:47:45.449Z,2.30
2023-05-10T16:50:12.140Z,2.07
2023-05-10T16:52:39.191Z,1.50
2023-05-10T16:55:06.026Z,3.20
2023-05-10T16:57:33.148Z,7.90
2023-05-10T16:59:59.762Z,4.07
2023-05-10T17:02:26.572Z,2.73
2023-05-10T17:04:54.976Z,1.80
2023-05-10T17:07:22.657Z,2.17
2023-05-10T17:09:50.789Z,1.43
2023-05-10T17:12:17.420Z,1.70
2023-05-10T17:14:43.996Z,1.57
2023-05-10T17:17:11.305Z,2.07
2023-05-10T17:19:37.925Z,2.37
2023-05-10T17:22:04.662Z,3.67
2023-05-10T17:24:31.512Z,1.80
2023-05-10T17:26:58.123Z,3.43
2023-05-10T17:29:24.717Z,2.03
2023-05-10T17:31:51.345Z,12.60
2023-05-10T17:34:17.975Z,13.97
2023-05-10T17:36:44.512Z,18.53
2023-05-10T17:39:11.239Z,21.03
2023-05-10T17:41:37.861Z,18.90
2023-05-10T17:44:04.419Z,15.43
2023-05-10T17:46:31.369Z,16.43
2023-05-10T17:48:58.145Z,15.40
2023-05-10T17:51:24.676Z,14.33
2023-05-10T17:53:51.226Z,15.50
2023-05-10T17:56:17.861Z,13.53
2023-05-10T17:58:44.425Z,12.50
2023-05-10T18:01:11.266Z,13.00
2023-05-10T18:03:37.973Z,13.33
2023-05-10T18:06:04.779Z,14.73
2023-05-10T18:08:31.563Z,15.17
2023-05-10T18:10:58.221Z,17.20
2023-05-10T18:13:25.758Z,25.00
2023-05-10T18:15:52.433Z,31.90
2023-05-10T18:18:19.058Z,49.63
2023-05-10T18:20:46.455Z,48.40
2023-05-10T18:23:13.281Z,47.50
2023-05-10T18:25:40.642Z,29.53
2023-05-10T18:28:08.472Z,22.07
2023-05-10T18:30:36.382Z,17.10
2023-05-10T18:33:03.645Z,12.00
2023-05-10T18:35:31.435Z,14.40
2023-05-10T18:37:58.172Z,17.03
2023-05-10T18:40:27.943Z,18.10
2023-05-10T18:42:54.604Z,17.30
2023-05-10T18:45:21.340Z,18.13
2023-05-10T18:47:48.551Z,10.23
2023-05-10T18:50:17.710Z,14.20
2023-05-10T18:52:45.588Z,11.23
2023-05-10T18:55:12.404Z,16.53
2023-05-10T18:57:41.849Z,7.83
2023-05-10T19:00:10.594Z,14.33
2023-05-10T19:02:38.210Z,11.30
2023-05-10T19:05:05.325Z,12.53
2023-05-10T19:07:32.242Z,13.53
2023-05-10T19:09:58.937Z,12.20
2023-05-10T19:12:25.496Z,10.93
2023-05-10T19:14:52.103Z,9.53
2023-05-10T19:17:20.256Z,13.00
2023-05-10T19:19:48.063Z,10.93
2023-05-10T19:22:14.749Z,12.23
2023-05-10T19:24:41.726Z,13.93
2023-05-10T19:27:09.142Z,11.67
2023-05-10T19:29:35.819Z,11.80
2023-05-10T19:32:02.533Z,9.93
2023-05-10T19:34:29.997Z,7.87
2023-05-10T19:36:57.921Z,9.53
2023-05-10T19:39:24.544Z,11.70
2023-05-10T19:41:51.165Z,11.40
2023-05-10T19:44:18.097Z,8.00
2023-05-10T19:46:44.754Z,8.67
2023-05-10T19:49:11.496Z,10.37
2023-05-10T19:51:38.107Z,9.07
2023-05-10T19:54:04.696Z,10.73
2023-05-10T19:56:31.900Z,10.60
2023-05-10T19:58:59.448Z,10.63
2023-05-10T20:01:26.069Z,10.90
2023-05-10T20:03:53.029Z,9.60
2023-05-10T20:06:19.717Z,13.10
2023-05-10T20:08:46.324Z,10.60
2023-05-10T20:11:13.256Z,10.23
2023-05-10T20:13:39.897Z,10.03
2023-05-10T20:16:07.408Z,11.67
2023-05-10T20:18:36.941Z,9.03
2023-05-10T20:21:03.675Z,9.53
2023-05-10T20:23:30.278Z,8.40
2023-05-10T20:25:57.337Z,10.00
2023-05-10T20:28:26.062Z,9.33
2023-05-10T20:30:53.836Z,8.47
2023-05-10T20:33:21.052Z,8.83
2023-05-10T20:35:47.702Z,8.07
2023-05-10T20:38:14.396Z,11.00
2023-05-10T20:40:41.056Z,9.77
2023-05-10T20:43:07.674Z,10.53
2023-05-10T20:45:35.387Z,10.87
2023-05-10T20:48:03.870Z,11.43
2023-05-10T20:50:30.812Z,10.63
2023-05-10T20:52:58.187Z,9.30
2023-05-10T20:55:24.752Z,9.60
2023-05-10T20:57:51.576Z,9.63
2023-05-10T21:00:18.659Z,10.03
2023-05-10T21:02:45.709Z,9.27
2023-05-10T21:05:12.554Z,9.20
2023-05-10T21:07:39.477Z,8.07
2023-05-10T21:10:10.507Z,8.90
2023-05-10T21:12:37.282Z,7.17
2023-05-10T21:15:04.250Z,6.57
2023-05-10T21:17:30.848Z,6.73
2023-05-10T21:19:57.473Z,8.37
2023-05-10T21:22:23.931Z,6.97
2023-05-10T21:24:50.498Z,5.33
2023-05-10T21:27:17.040Z,7.17
2023-05-10T21:29:44.063Z,8.47
2023-05-10T21:32:11.016Z,8.83
2023-05-10T21:34:37.684Z,6.17
2023-05-10T21:37:04.294Z,9.83
2023-05-10T21:39:30.866Z,10.93
2023-05-10T21:41:57.442Z,10.87
2023-05-10T21:44:24.312Z,7.90
2023-05-10T21:46:51.054Z,13.80
2023-05-10T21:49:17.926Z,8.27
2023-05-10T21:51:44.499Z,9.90
2023-05-10T21:54:11.089Z,10.00
2023-05-10T21:56:37.672Z,10.53
2023-05-10T21:59:04.672Z,12.80
2023-05-10T22:01:31.459Z,13.57
2023-05-10T22:03:57.986Z,12.30
2023-05-10T22:06:24.486Z,12.70
2023-05-10T22:08:50.980Z,14.20
2023-05-10T22:11:17.531Z,12.43
2023-05-10T22:13:44.033Z,13.63
2023-05-10T22:16:10.675Z,14.30
2023-05-10T22:18:37.491Z,13.77
2023-05-10T22:21:04.151Z,12.67
2023-05-10T22:23:30.714Z,14.03
2023-05-10T22:26:03.646Z,11.83
2023-05-10T22:28:30.238Z,13.47
2023-05-10T22:30:56.853Z,14.50
2023-05-10T22:33:23.497Z,13.03
2023-05-10T22:35:50.112Z,13.97
2023-05-10T22:38:16.722Z,13.80
2023-05-10T22:40:43.257Z,12.17
2023-05-10T22:43:09.870Z,12.90
2023-05-10T22:45:36.478Z,12.43
2023-05-10T22:48:05.241Z,14.93
2023-05-10T22:50:31.976Z,13.30
2023-05-10T22:52:58.542Z,13.67
2023-05-10T22:55:25.124Z,15.80
2023-05-10T22:57:52.245Z,15.20
2023-05-10T23:00:19.032Z,14.67
2023-05-10T23:02:45.883Z,16.30
2023-05-10T23:05:13.183Z,14.47
2023-05-10T23:07:39.802Z,15.10
2023-05-10T23:10:06.588Z,15.10
2023-05-10T23:12:34.009Z,13.20
2023-05-10T23:15:00.515Z,15.67
2023-05-10T23:17:27.106Z,15.27
2023-05-10T23:19:53.618Z,15.07
2023-05-10T23:22:20.181Z,14.83
2023-05-10T23:24:46.960Z,14.43
2023-05-10T23:27:14.574Z,15.53
2023-05-10T23:29:41.576Z,15.83
2023-05-10T23:32:08.176Z,13.23
2023-05-10T23:34:34.782Z,14.90
2023-05-10T23:37:01.325Z,13.80
2023-05-10T23:39:28.079Z,14.57
2023-05-10T23:41:54.814Z,14.93
2023-05-10T23:44:21.353Z,15.30
2023-05-10T23:46:47.993Z,15.83
2023-05-10T23:49:14.487Z,24.77
2023-05-10T23:51:41.183Z,15.87
2023-05-10T23:54:08.711Z,20.30
2023-05-10T23:56:35.261Z,14.40
2023-05-10T23:59:01.731Z,14.97
